createdAt,value
2023-03-29T00:00:14.018Z,74.77
2023-03-29T00:02:42.704Z,75.26
2023-03-29T00:05:12.287Z,75.74
2023-03-29T00:07:42.530Z,76.08
2023-03-29T00:10:11.955Z,76.60
2023-03-29T00:12:41.550Z,76.94
2023-03-29T00:15:10.633Z,76.90
2023-03-29T00:17:38.714Z,77.33
2023-03-29T00:20:10.264Z,77.95
2023-03-29T00:22:39.813Z,78.32
2023-03-29T00:25:10.209Z,78.85
2023-03-29T00:27:39.037Z,79.20
2023-03-29T00:30:10.143Z,79.58
2023-03-29T00:32:38.664Z,79.73
2023-03-29T00:35:07.409Z,79.73
2023-03-29T00:37:35.921Z,79.84
2023-03-29T00:40:07.804Z,79.73
2023-03-29T00:42:37.389Z,80.18
2023-03-29T00:45:08.696Z,80.59
2023-03-29T00:47:41.469Z,81.37
2023-03-29T00:50:14.365Z,81.55
2023-03-29T00:52:43.605Z,81.59
2023-03-29T00:55:15.797Z,81.69
2023-03-29T00:57:46.861Z,81.91
2023-03-29T01:00:20.897Z,82.10
2023-03-29T01:02:55.081Z,82.59
2023-03-29T01:05:27.149Z,82.83
2023-03-29T01:07:58.437Z,83.27
2023-03-29T01:10:32.674Z,83.64
2023-03-29T01:13:06.152Z,84.26
2023-03-29T01:15:34.595Z,84.25
2023-03-29T01:18:02.868Z,84.45
2023-03-29T01:20:43.325Z,84.77
2023-03-29T01:23:26.912Z,85.15
2023-03-29T01:25:58.671Z,85.53
2023-03-29T01:28:32.808Z,85.82
2023-03-29T01:31:03.962Z,85.85
2023-03-29T01:33:34.841Z,85.77
2023-03-29T01:36:06.064Z,86.05
2023-03-29T01:38:37.856Z,86.30
2023-03-29T01:41:07.820Z,86.43
2023-03-29T01:43:42.527Z,86.34
2023-03-29T01:46:15.438Z,86.57
2023-03-29T01:48:47.684Z,86.62
2023-03-29T01:51:19.035Z,86.70
2023-03-29T01:53:49.920Z,87.00
2023-03-29T01:56:20.742Z,87.08
2023-03-29T01:58:52.062Z,86.99
2023-03-29T02:01:23.257Z,86.95
2023-03-29T02:03:54.711Z,87.15
2023-03-29T02:06:26.202Z,86.96
2023-03-29T02:08:55.741Z,86.98
2023-03-29T02:11:24.596Z,87.08
2023-03-29T02:13:54.077Z,87.15
2023-03-29T02:16:22.340Z,87.23
2023-03-29T02:18:52.800Z,87.24
2023-03-29T02:21:25.024Z,87.34
2023-03-29T02:23:54.762Z,87.40
2023-03-29T02:26:23.978Z,87.51
2023-03-29T02:28:54.073Z,87.46
2023-03-29T02:31:26.205Z,87.51
2023-03-29T02:33:58.699Z,87.36
2023-03-29T02:36:31.055Z,87.19
2023-03-29T02:39:01.948Z,87.12
2023-03-29T02:41:30.045Z,87.16
2023-03-29T02:44:00.100Z,87.02
2023-03-29T02:46:28.843Z,86.95
2023-03-29T02:48:58.532Z,87.17
2023-03-29T02:51:30.514Z,87.20
2023-03-29T02:54:03.100Z,87.17
2023-03-29T02:56:31.627Z,87.13
2023-03-29T02:59:01.077Z,87.15
2023-03-29T03:01:29.206Z,87.21
2023-03-29T03:03:57.785Z,87.38
2023-03-29T03:06:25.967Z,87.56
2023-03-29T03:08:54.028Z,87.44
2023-03-29T03:11:22.650Z,87.41
2023-03-29T03:13:51.598Z,87.32
2023-03-29T03:16:21.860Z,87.32
2023-03-29T03:18:51.220Z,87.19
2023-03-29T03:21:20.027Z,87.15
2023-03-29T03:23:48.540Z,86.96
2023-03-29T03:26:18.200Z,86.95
2023-03-29T03:28:46.720Z,86.96
2023-03-29T03:31:15.218Z,87.19
2023-03-29T03:33:44.767Z,87.23
2023-03-29T03:36:13.138Z,87.34
2023-03-29T03:38:41.293Z,87.30
2023-03-29T03:41:09.392Z,87.33
2023-03-29T03:43:37.546Z,87.50
2023-03-29T03:46:06.114Z,87.58
2023-03-29T03:48:34.192Z,87.53
2023-03-29T03:51:04.822Z,87.55
2023-03-29T03:53:33.808Z,87.47
2023-03-29T03:56:02.193Z,87.27
2023-03-29T03:58:30.258Z,87.16
2023-03-29T04:00:58.300Z,87.20
2023-03-29T04:03:26.429Z,87.15
2023-03-29T04:05:54.586Z,86.98
2023-03-29T04:08:24.029Z,87.01
2023-03-29T04:10:53.039Z,87.06
2023-03-29T04:13:21.668Z,86.87
2023-03-29T04:15:54.068Z,86.92
2023-03-29T04:18:22.696Z,86.85
2023-03-29T04:20:51.543Z,86.88
2023-03-29T04:23:19.654Z,86.71
2023-03-29T04:25:49.106Z,86.65
2023-03-29T04:28:17.163Z,86.54
2023-03-29T04:30:46.728Z,86.51
2023-03-29T04:33:14.821Z,86.51
2023-03-29T04:35:43.127Z,86.50
2023-03-29T04:38:11.545Z,86.13
2023-03-29T04:40:39.649Z,86.32
2023-03-29T04:43:09.044Z,86.27
2023-03-29T04:45:37.140Z,86.08
2023-03-29T04:48:05.663Z,85.84
2023-03-29T04:50:34.746Z,85.82
2023-03-29T04:53:03.659Z,85.68
2023-03-29T04:55:31.722Z,85.52
2023-03-29T04:57:59.832Z,85.32
2023-03-29T05:00:29.330Z,85.25
2023-03-29T05:02:57.890Z,85.16
2023-03-29T05:05:26.134Z,85.11
2023-03-29T05:07:54.904Z,84.75
2023-03-29T05:10:23.508Z,84.52
2023-03-29T05:12:54.196Z,84.33
2023-03-29T05:15:22.681Z,84.19
2023-03-29T05:17:52.153Z,84.10
2023-03-29T05:20:20.924Z,83.87
2023-03-29T05:22:49.022Z,83.75
2023-03-29T05:25:18.350Z,83.64
2023-03-29T05:27:46.770Z,83.40
2023-03-29T05:30:15.890Z,83.64
2023-03-29T05:32:44.111Z,83.48
2023-03-29T05:35:13.617Z,83.17
2023-03-29T05:37:41.974Z,82.99
2023-03-29T05:40:12.868Z,82.45
2023-03-29T05:42:40.960Z,82.17
2023-03-29T05:45:10.589Z,82.07
2023-03-29T05:47:38.686Z,81.89
2023-03-29T05:50:09.707Z,81.44
2023-03-29T05:52:39.742Z,81.44
2023-03-29T05:55:08.998Z,81.12
2023-03-29T05:57:37.748Z,81.16
2023-03-29T06:00:15.306Z,80.90
2023-03-29T06:02:43.884Z,80.92
2023-03-29T06:05:12.063Z,80.66
2023-03-29T06:07:42.350Z,80.40
2023-03-29T06:10:11.251Z,79.95
2023-03-29T06:12:39.319Z,79.93
2023-03-29T06:15:08.918Z,79.95
2023-03-29T06:17:37.462Z,79.90
2023-03-29T06:20:11.032Z,79.61
2023-03-29T06:22:39.286Z,79.38
2023-03-29T06:25:10.943Z,79.18
2023-03-29T06:27:39.184Z,78.72
2023-03-29T06:30:08.517Z,78.38
2023-03-29T06:32:36.760Z,78.40
2023-03-29T06:35:05.414Z,78.20
2023-03-29T06:37:33.764Z,77.76
2023-03-29T06:40:05.664Z,77.81
2023-03-29T06:42:35.713Z,77.90
2023-03-29T06:45:04.281Z,77.78
2023-03-29T06:47:32.872Z,77.66
2023-03-29T06:50:01.007Z,77.57
2023-03-29T06:52:29.147Z,77.67
2023-03-29T06:54:57.217Z,77.41
2023-03-29T06:57:25.354Z,77.24
2023-03-29T06:59:55.273Z,77.72
2023-03-29T07:02:23.370Z,77.64
2023-03-29T07:04:51.761Z,77.73
2023-03-29T07:07:22.616Z,77.46
2023-03-29T07:09:54.136Z,76.82
2023-03-29T07:12:23.455Z,76.50
2023-03-29T07:14:51.531Z,76.62
2023-03-29T07:17:20.935Z,76.48
2023-03-29T07:19:49.270Z,76.49
2023-03-29T07:22:17.361Z,76.13
2023-03-29T07:24:45.414Z,76.30
2023-03-29T07:27:14.705Z,75.93
2023-03-29T07:29:43.166Z,75.88
2023-03-29T07:32:11.456Z,75.97
2023-03-29T07:34:42.169Z,76.44
2023-03-29T07:37:10.594Z,76.38
2023-03-29T07:39:38.686Z,76.47
2023-03-29T07:42:06.870Z,76.57
2023-03-29T07:44:35.632Z,76.87
2023-03-29T07:47:04.448Z,76.83
2023-03-29T07:49:32.747Z,77.07
2023-03-29T07:52:03.718Z,77.06
2023-03-29T07:54:33.037Z,77.26
2023-03-29T07:57:01.171Z,77.31
2023-03-29T07:59:29.294Z,77.71
2023-03-29T08:01:57.392Z,77.41
2023-03-29T08:04:25.527Z,77.04
2023-03-29T08:06:54.193Z,77.25
2023-03-29T08:09:23.739Z,77.52
2023-03-29T08:11:51.916Z,77.05
2023-03-29T08:14:21.831Z,77.21
2023-03-29T08:16:49.903Z,77.19
2023-03-29T08:19:18.196Z,77.10
2023-03-29T08:21:46.845Z,76.74
2023-03-29T08:24:14.921Z,76.57
2023-03-29T08:26:44.368Z,76.29
2023-03-29T08:29:12.800Z,76.10
2023-03-29T08:31:40.974Z,76.56
2023-03-29T08:34:09.068Z,76.32
2023-03-29T08:36:37.171Z,76.03
2023-03-29T08:39:05.885Z,76.39
2023-03-29T08:41:48.170Z,76.35
2023-03-29T08:44:29.370Z,76.35
2023-03-29T08:47:02.945Z,76.24
2023-03-29T08:49:31.898Z,76.69
2023-03-29T08:52:02.366Z,77.20
2023-03-29T08:54:42.607Z,77.01
2023-03-29T08:57:17.073Z,76.84
2023-03-29T08:59:46.789Z,77.54
2023-03-29T09:02:19.030Z,77.96
2023-03-29T09:04:48.890Z,78.03
2023-03-29T09:07:17.023Z,78.32
2023-03-29T09:09:45.564Z,78.86
2023-03-29T09:12:23.648Z,78.68
2023-03-29T09:15:04.600Z,79.41
2023-03-29T09:17:40.315Z,79.32
2023-03-29T09:20:21.137Z,79.54
2023-03-29T09:22:53.875Z,79.80
2023-03-29T09:25:27.504Z,79.69
2023-03-29T09:27:59.332Z,80.48
2023-03-29T09:30:30.769Z,80.23
2023-03-29T09:33:01.885Z,80.67
2023-03-29T09:35:33.142Z,80.23
2023-03-29T09:38:01.510Z,80.33
2023-03-29T09:40:34.168Z,80.20
2023-03-29T09:43:04.185Z,80.31
2023-03-29T09:45:34.193Z,80.58
2023-03-29T09:48:07.900Z,80.55
2023-03-29T09:50:39.200Z,79.92
2023-03-29T09:53:08.263Z,79.94
2023-03-29T09:55:39.535Z,79.57
2023-03-29T09:58:14.690Z,78.84
2023-03-29T10:00:47.179Z,78.71
2023-03-29T10:03:19.828Z,78.41
2023-03-29T10:05:48.177Z,78.43
2023-03-29T10:08:20.380Z,78.72
2023-03-29T10:10:48.591Z,78.00
2023-03-29T10:13:21.848Z,77.61
2023-03-29T10:16:03.813Z,77.22
2023-03-29T10:18:33.136Z,76.75
2023-03-29T10:21:03.757Z,76.69
2023-03-29T10:23:33.821Z,76.58
2023-03-29T10:26:04.285Z,76.33
2023-03-29T10:28:33.154Z,76.27
2023-03-29T10:31:04.211Z,76.40
2023-03-29T10:33:34.671Z,76.23
2023-03-29T10:36:05.810Z,76.10
2023-03-29T10:38:36.377Z,75.68
2023-03-29T10:41:08.045Z,76.01
2023-03-29T10:43:38.437Z,75.92
2023-03-29T10:46:10.805Z,75.94
2023-03-29T10:48:49.066Z,76.39
2023-03-29T10:51:19.375Z,76.36
2023-03-29T10:53:47.772Z,76.54
2023-03-29T10:56:30.658Z,76.64
2023-03-29T10:59:27.444Z,76.32
2023-03-29T11:02:43.400Z,75.73
2023-03-29T11:05:19.251Z,76.21
2023-03-29T11:07:57.204Z,76.36
2023-03-29T11:10:36.332Z,76.69
2023-03-29T11:13:12.495Z,76.85
2023-03-29T11:15:48.003Z,76.23
2023-03-29T11:18:31.649Z,75.60
2023-03-29T11:21:10.161Z,74.99
2023-03-29T11:23:47.179Z,74.59
2023-03-29T11:26:19.145Z,74.27
2023-03-29T11:28:52.982Z,74.21
2023-03-29T11:31:39.088Z,73.85
2023-03-29T11:34:22.075Z,73.72
2023-03-29T11:36:53.936Z,74.12
2023-03-29T11:39:29.112Z,73.77
2023-03-29T11:42:03.157Z,74.06
2023-03-29T11:44:32.154Z,74.19
2023-03-29T11:47:04.879Z,73.72
2023-03-29T11:49:38.728Z,73.92
2023-03-29T11:52:12.021Z,73.71
2023-03-29T11:54:42.312Z,73.89
2023-03-29T11:57:17.669Z,73.49
2023-03-29T11:59:52.171Z,73.43
2023-03-29T12:02:27.340Z,73.60
2023-03-29T12:04:59.708Z,73.50
2023-03-29T12:07:30.624Z,73.44
2023-03-29T12:10:02.019Z,73.60
2023-03-29T12:12:36.094Z,73.73
2023-03-29T12:15:07.006Z,73.67
2023-03-29T12:17:39.217Z,73.47
2023-03-29T12:20:15.780Z,73.96
2023-03-29T12:22:46.355Z,73.74
2023-03-29T12:25:18.796Z,73.52
2023-03-29T12:27:56.159Z,73.83
2023-03-29T12:30:40.893Z,73.73
2023-03-29T12:33:33.665Z,73.84
2023-03-29T12:36:14.860Z,73.70
2023-03-29T12:38:44.773Z,73.84
2023-03-29T12:41:17.651Z,73.77
2023-03-29T12:43:46.542Z,73.96
2023-03-29T12:46:18.307Z,74.40
2023-03-29T12:48:49.819Z,74.21
2023-03-29T12:51:22.365Z,74.13
2023-03-29T12:53:51.966Z,74.80
2023-03-29T12:56:23.614Z,74.53
2023-03-29T12:59:06.673Z,74.82
2023-03-29T13:01:36.935Z,74.51
2023-03-29T13:04:19.974Z,74.63
2023-03-29T13:07:07.131Z,74.59
2023-03-29T13:09:48.146Z,74.78
2023-03-29T13:12:23.889Z,74.72
2023-03-29T13:14:54.269Z,74.48
2023-03-29T13:17:27.574Z,75.29
2023-03-29T13:20:10.195Z,75.13
2023-03-29T13:22:48.818Z,75.25
2023-03-29T13:25:37.161Z,75.16
2023-03-29T13:28:11.454Z,75.21
2023-03-29T13:30:50.782Z,75.08
2023-03-29T13:33:39.625Z,75.02
2023-03-29T13:36:15.549Z,75.00
2023-03-29T13:38:49.730Z,75.30
2023-03-29T13:41:44.433Z,75.39
2023-03-29T13:44:26.038Z,75.65
2023-03-29T13:47:04.923Z,75.15
2023-03-29T13:49:34.944Z,75.16
2023-03-29T13:52:15.953Z,75.09
2023-03-29T13:54:51.899Z,75.09
2023-03-29T13:57:21.468Z,75.38
2023-03-29T13:59:54.823Z,74.92
2023-03-29T14:02:32.437Z,74.63
2023-03-29T14:05:02.118Z,74.86
2023-03-29T14:07:32.249Z,75.17
2023-03-29T14:10:02.075Z,74.96
2023-03-29T14:12:33.754Z,75.16
2023-03-29T14:15:03.592Z,74.97
2023-03-29T14:17:32.749Z,74.71
2023-03-29T14:20:01.898Z,74.86
2023-03-29T14:22:33.800Z,74.52
2023-03-29T14:25:09.537Z,75.55
2023-03-29T14:27:38.332Z,76.14
2023-03-29T14:30:23.170Z,76.84
2023-03-29T14:32:52.362Z,77.31
2023-03-29T14:35:21.483Z,77.23
2023-03-29T14:37:50.051Z,78.00
2023-03-29T14:40:21.064Z,78.19
2023-03-29T14:42:50.976Z,78.17
2023-03-29T14:45:23.274Z,78.54
2023-03-29T14:47:52.853Z,78.90
2023-03-29T14:50:25.128Z,79.51
2023-03-29T14:52:53.838Z,79.74
2023-03-29T14:55:24.915Z,79.86
2023-03-29T14:57:55.432Z,80.01
2023-03-29T15:00:28.176Z,80.04
2023-03-29T15:02:58.052Z,79.96
2023-03-29T15:05:33.787Z,80.38
2023-03-29T15:08:03.052Z,80.66
2023-03-29T15:10:35.534Z,80.95
2023-03-29T15:13:04.817Z,81.11
2023-03-29T15:15:34.604Z,81.20
2023-03-29T15:18:03.887Z,81.17
2023-03-29T15:20:34.686Z,81.45
2023-03-29T15:23:05.506Z,81.69
2023-03-29T15:25:37.198Z,82.05
2023-03-29T15:28:06.218Z,82.02
2023-03-29T15:30:36.624Z,82.10
2023-03-29T15:33:20.305Z,82.20
2023-03-29T15:35:52.301Z,81.90
2023-03-29T15:38:25.405Z,81.73
2023-03-29T15:41:03.657Z,81.82
2023-03-29T15:43:31.945Z,81.59
2023-03-29T15:46:00.036Z,81.28
2023-03-29T15:48:29.152Z,80.94
2023-03-29T15:51:00.824Z,80.91
2023-03-29T15:53:30.207Z,80.79
2023-03-29T15:56:01.995Z,80.88
2023-03-29T15:58:33.751Z,80.80
2023-03-29T16:01:11.313Z,80.60
2023-03-29T16:03:39.809Z,80.70
2023-03-29T16:06:11.568Z,80.89
2023-03-29T16:08:40.813Z,81.37
2023-03-29T16:11:09.352Z,81.34
2023-03-29T16:13:38.845Z,81.66
2023-03-29T16:16:08.369Z,81.86
2023-03-29T16:18:36.728Z,82.38
2023-03-29T16:21:05.149Z,82.82
2023-03-29T16:23:33.302Z,83.28
2023-03-29T16:26:01.689Z,83.46
2023-03-29T16:28:29.886Z,83.63
2023-03-29T16:30:59.382Z,84.00
2023-03-29T16:33:27.466Z,84.12
2023-03-29T16:35:56.155Z,84.52
2023-03-29T16:38:25.892Z,84.64
2023-03-29T16:40:53.990Z,85.12
2023-03-29T16:43:22.202Z,85.14
2023-03-29T16:45:50.321Z,85.38
2023-03-29T16:48:20.355Z,85.66
2023-03-29T16:50:49.467Z,85.80
2023-03-29T16:53:18.517Z,85.81
2023-03-29T16:55:46.802Z,86.14
2023-03-29T16:58:15.558Z,86.35
2023-03-29T17:00:46.378Z,86.58
2023-03-29T17:03:16.893Z,86.69
2023-03-29T17:05:50.213Z,86.71
2023-03-29T17:08:18.481Z,87.03
2023-03-29T17:10:46.707Z,87.04
2023-03-29T17:13:14.961Z,86.96
2023-03-29T17:15:43.332Z,87.09
2023-03-29T17:18:12.235Z,87.09
2023-03-29T17:20:43.686Z,86.58
2023-03-29T17:23:13.266Z,86.29
2023-03-29T17:25:41.483Z,86.35
2023-03-29T17:28:09.639Z,86.32
2023-03-29T17:30:38.301Z,86.22
2023-03-29T17:33:08.141Z,86.42
2023-03-29T17:35:36.364Z,86.64
2023-03-29T17:38:04.573Z,86.70
2023-03-29T17:40:34.089Z,86.76
2023-03-29T17:43:02.199Z,86.96
2023-03-29T17:45:30.829Z,86.98
2023-03-29T17:47:59.058Z,87.20
2023-03-29T17:50:27.231Z,87.31
2023-03-29T17:52:55.367Z,87.74
2023-03-29T17:55:23.461Z,87.67
2023-03-29T17:57:52.928Z,87.72
2023-03-29T18:00:21.787Z,88.24
2023-03-29T18:02:50.159Z,88.26
2023-03-29T18:05:18.644Z,88.41
2023-03-29T18:07:46.732Z,88.95
2023-03-29T18:10:14.794Z,89.02
2023-03-29T18:12:42.932Z,89.31
2023-03-29T18:15:12.915Z,89.26
2023-03-29T18:17:41.051Z,89.56
2023-03-29T18:20:11.830Z,89.75
2023-03-29T18:22:41.378Z,90.07
2023-03-29T18:25:11.065Z,90.26
2023-03-29T18:27:39.809Z,90.19
2023-03-29T18:30:09.334Z,90.37
2023-03-29T18:32:38.930Z,90.14
2023-03-29T18:35:08.505Z,89.94
2023-03-29T18:37:37.256Z,90.14
2023-03-29T18:40:09.299Z,90.13
2023-03-29T18:42:37.580Z,89.95
2023-03-29T18:45:06.600Z,90.24
2023-03-29T18:47:34.715Z,90.11
2023-03-29T18:50:04.376Z,90.09
2023-03-29T18:52:32.472Z,90.18
2023-03-29T18:55:00.629Z,90.23
2023-03-29T18:57:28.788Z,90.47
2023-03-29T18:59:56.884Z,90.40
2023-03-29T19:02:25.165Z,90.37
2023-03-29T19:04:53.511Z,90.37
2023-03-29T19:07:23.006Z,90.35
2023-03-29T19:09:51.058Z,90.20
2023-03-29T19:12:19.111Z,90.19
2023-03-29T19:14:47.220Z,90.16
2023-03-29T19:17:15.313Z,90.12
2023-03-29T19:19:43.390Z,90.35
2023-03-29T19:22:11.436Z,90.40
2023-03-29T19:24:40.926Z,90.03
2023-03-29T19:27:11.992Z,90.14
2023-03-29T19:29:41.210Z,89.95
2023-03-29T19:32:09.367Z,90.20
2023-03-29T19:34:37.554Z,90.40
2023-03-29T19:37:05.833Z,90.29
2023-03-29T19:39:34.571Z,90.21
2023-03-29T19:42:04.065Z,90.09
2023-03-29T19:44:32.172Z,89.88
2023-03-29T19:47:00.378Z,89.88
2023-03-29T19:49:28.553Z,90.24
2023-03-29T19:51:57.399Z,89.96
2023-03-29T19:54:26.307Z,90.09
2023-03-29T19:56:57.297Z,90.03
2023-03-29T19:59:27.753Z,90.31
2023-03-29T20:01:56.800Z,90.33
2023-03-29T20:04:25.819Z,90.11
2023-03-29T20:06:53.928Z,90.25
2023-03-29T20:09:22.111Z,90.32
2023-03-29T20:11:50.286Z,90.48
2023-03-29T20:14:18.393Z,90.79
2023-03-29T20:16:49.618Z,90.75
2023-03-29T20:19:18.688Z,90.80
2023-03-29T20:21:46.802Z,90.88
2023-03-29T20:24:15.130Z,91.02
2023-03-29T20:26:43.209Z,90.92
2023-03-29T20:29:11.277Z,90.71
2023-03-29T20:31:39.567Z,90.65
2023-03-29T20:34:09.082Z,91.02
2023-03-29T20:36:37.388Z,90.85
2023-03-29T20:39:06.149Z,90.89
2023-03-29T20:41:38.285Z,90.84
2023-03-29T20:44:06.717Z,90.63
2023-03-29T20:46:34.847Z,90.53
2023-03-29T20:49:04.580Z,90.33
2023-03-29T20:51:34.161Z,90.45
2023-03-29T20:54:04.774Z,90.42
2023-03-29T20:56:34.559Z,90.37
2023-03-29T20:59:03.966Z,90.47
2023-03-29T21:01:32.493Z,90.33
2023-03-29T21:04:00.649Z,90.25
2023-03-29T21:06:28.771Z,89.99
2023-03-29T21:08:58.738Z,90.20
2023-03-29T21:11:27.530Z,89.92
2023-03-29T21:13:55.589Z,89.60
2023-03-29T21:16:25.217Z,89.60
2023-03-29T21:18:54.135Z,89.46
2023-03-29T21:21:22.996Z,89.65
2023-03-29T21:23:51.331Z,89.24
2023-03-29T21:26:21.358Z,89.33
2023-03-29T21:28:49.517Z,89.32
2023-03-29T21:31:17.666Z,89.36
2023-03-29T21:33:45.967Z,89.50
2023-03-29T21:36:14.136Z,89.30
2023-03-29T21:38:42.207Z,89.34
2023-03-29T21:41:12.006Z,89.58
2023-03-29T21:43:41.551Z,89.46
2023-03-29T21:46:10.227Z,89.51
2023-03-29T21:48:38.669Z,89.47
2023-03-29T21:51:07.299Z,89.61
2023-03-29T21:53:35.434Z,89.55
2023-03-29T21:56:03.616Z,89.94
2023-03-29T21:58:31.776Z,89.73
2023-03-29T22:01:03.585Z,89.67
2023-03-29T22:03:31.904Z,89.85
2023-03-29T22:06:02.477Z,89.69
2023-03-29T22:08:30.790Z,89.58
2023-03-29T22:10:58.949Z,89.74
2023-03-29T22:13:29.113Z,89.75
2023-03-29T22:15:59.111Z,89.84
2023-03-29T22:18:42.057Z,89.82
2023-03-29T22:21:15.038Z,89.79
2023-03-29T22:23:44.098Z,89.96
2023-03-29T22:26:13.654Z,89.80
2023-03-29T22:28:42.158Z,89.68
2023-03-29T22:31:12.339Z,89.38
2023-03-29T22:33:42.412Z,89.57
2023-03-29T22:36:15.547Z,89.34
2023-03-29T22:38:44.056Z,89.43
2023-03-29T22:41:12.811Z,89.53
2023-03-29T22:43:41.255Z,89.61
2023-03-29T22:46:10.832Z,89.65
2023-03-29T22:48:39.487Z,89.82
2023-03-29T22:51:08.929Z,89.72
2023-03-29T22:53:37.055Z,89.81
2023-03-29T22:56:07.807Z,89.76
2023-03-29T22:58:35.952Z,89.96
2023-03-29T23:01:04.914Z,89.82
2023-03-29T23:03:33.646Z,90.00
2023-03-29T23:06:03.094Z,90.28
2023-03-29T23:08:33.394Z,90.27
2023-03-29T23:11:02.067Z,90.51
2023-03-29T23:13:30.561Z,90.48
2023-03-29T23:16:00.491Z,90.56
2023-03-29T23:18:30.274Z,90.89
2023-03-29T23:21:00.207Z,91.08
2023-03-29T23:23:29.251Z,91.32
2023-03-29T23:25:58.857Z,91.59
2023-03-29T23:28:30.507Z,91.86
2023-03-29T23:31:02.589Z,92.08
2023-03-29T23:33:33.512Z,92.45
2023-03-29T23:36:03.431Z,92.81
2023-03-29T23:38:31.920Z,92.66
2023-03-29T23:41:03.012Z,92.94
2023-03-29T23:43:33.491Z,92.90
2023-03-29T23:46:03.458Z,93.31
2023-03-29T23:48:32.262Z,93.32
2023-03-29T23:51:00.344Z,93.19
2023-03-29T23:53:29.292Z,93.42
2023-03-29T23:55:58.491Z,93.32
2023-03-29T23:58:28.449Z,93.28
